Time;durP1;ratioP1;P1;durP2;ratioP2;P2;SDS_P1;SDS_P2;PMS_P1;PMS_P2;Temp;Humidity;BMP_temperature;BMP_pressure;BME280_temperature;BME280_humidity;BME280_pressure;Samples;Min_cycle;Max_cycle;Signal;HPM_P1;HPM_P2
2023/06/17 00:00:12;;;;;;;4.75;4.20;;;;;;;18.63;58.84;99404.06;336739;28;18093;-64
2023/06/17 00:00:25;;;;;;;5.28;4.32;;;;;;;18.62;58.91;99412.94;340671;28;4678;-64
2023/06/17 00:00:37;;;;;;;5.80;4.45;;;;;;;18.62;58.59;99410.31;338507;28;19145;-64
2023/06/17 00:00:49;;;;;;;6.40;4.33;;;;;;;18.62;58.32;99401.56;341417;28;4792;-64
2023/06/17 00:01:01;;;;;;;6.13;4.32;;;;;;;18.63;58.28;99414.59;338083;28;17986;-65
2023/06/17 00:01:15;;;;;;;6.30;4.63;;;;;;;18.62;58.40;99407.66;340297;28;4528;-64
2023/06/17 00:01:27;;;;;;;6.93;4.68;;;;;;;18.61;58.57;99415.66;337589;28;18288;-64
2023/06/17 00:01:39;;;;;;;7.25;4.60;;;;;;;18.61;58.82;99405.97;340007;28;4699;-64
2023/06/17 00:01:51;;;;;;;6.20;4.30;;;;;;;18.61;58.68;99405.97;338104;28;5237;-64
2023/06/17 00:02:03;;;;;;;4.90;4.10;;;;;;;18.62;58.46;99405.03;341512;28;5486;-64
2023/06/17 00:02:15;;;;;;;5.25;4.25;;;;;;;18.60;58.58;99414.00;338464;28;11241;-64
2023/06/17 00:02:27;;;;;;;5.53;4.22;;;;;;;18.62;58.47;99406.84;341700;28;4641;-64
2023/06/17 00:02:39;;;;;;;5.90;4.20;;;;;;;18.62;58.19;99412.94;340253;28;4641;-64
2023/06/17 00:02:51;;;;;;;5.30;4.20;;;;;;;18.62;58.04;99415.56;338275;28;17890;-64
2023/06/17 00:03:03;;;;;;;4.93;4.10;;;;;;;18.62;57.96;99407.66;341293;28;5432;-64
2023/06/17 00:03:15;;;;;;;5.10;4.05;;;;;;;18.61;58.13;99411.22;338193;28;17939;-64
2023/06/17 00:03:28;;;;;;;5.10;4.18;;;;;;;18.60;58.36;99412.19;340301;28;5045;-64
2023/06/17 00:03:40;;;;;;;5.50;4.35;;;;;;;18.59;58.32;99413.13;338758;28;8502;-64
2023/06/17 00:03:52;;;;;;;5.60;4.45;;;;;;;18.59;58.00;99407.88;339926;28;17645;-64
2023/06/17 00:04:04;;;;;;;5.15;4.40;;;;;;;18.58;58.34;99411.47;340733;28;4672;-64
2023/06/17 00:04:16;;;;;;;6.65;4.50;;;;;;;18.55;58.64;99412.53;337567;28;18275;-64
2023/06/17 00:04:28;;;;;;;6.72;4.40;;;;;;;18.52;59.08;99412.72;340994;28;4485;-65
2023/06/17 00:04:40;;;;;;;6.47;4.43;;;;;;;18.52;59.01;99411.88;339243;28;5296;-64
2023/06/17 00:04:52;;;;;;;5.82;4.47;;;;;;;18.52;58.94;99406.63;338785;28;18291;-64
2023/06/17 00:05:05;;;;;;;5.57;4.47;;;;;;;18.54;59.02;99416.09;339997;28;4524;-64
2023/06/17 00:05:17;;;;;;;6.07;4.57;;;;;;;18.54;59.31;99415.25;338145;28;18208;-64
2023/06/17 00:05:29;;;;;;;6.65;4.65;;;;;;;18.51;58.84;99405.78;341408;28;5372;-64
2023/06/17 00:05:41;;;;;;;6.50;4.47;;;;;;;18.51;58.84;99416.31;338517;28;18269;-64
2023/06/17 00:05:53;;;;;;;6.05;4.32;;;;;;;18.51;58.99;99407.56;340519;28;5148;-64
2023/06/17 00:06:05;;;;;;;6.68;4.30;;;;;;;18.51;59.02;99411.06;338593;28;15168;-65
2023/06/17 00:06:17;;;;;;;6.72;4.20;;;;;;;18.54;58.68;99410.00;337554;28;5173;-64
2023/06/17 00:06:29;;;;;;;6.28;3.85;;;;;;;18.51;58.61;99412.81;340362;28;5399;-64
2023/06/17 00:06:41;;;;;;;5.65;4.00;;;;;;;18.50;58.76;99413.78;338652;28;18209;-64
2023/06/17 00:06:53;;;;;;;4.93;4.17;;;;;;;18.51;58.63;99410.19;340923;28;4645;-64
2023/06/17 00:07:05;;;;;;;5.53;4.45;;;;;;;18.52;58.55;99411.88;338748;28;15979;-64
2023/06/17 00:07:17;;;;;;;6.07;4.47;;;;;;;18.53;58.71;99413.56;337527;28;4711;-64
2023/06/17 00:07:31;;;;;;;6.40;4.28;;;;;;;18.54;58.93;99420.53;337730;28;17195;-64
2023/06/17 00:07:44;;;;;;;5.97;4.07;;;;;;;18.52;58.86;99411.88;341185;28;4606;-64
2023/06/17 00:07:56;;;;;;;6.75;4.32;;;;;;;18.51;58.95;99410.19;338079;28;18354;-63
2023/06/17 00:08:08;;;;;;;6.50;4.63;;;;;;;18.49;59.24;99412.97;341392;28;4686;-64
2023/06/17 00:08:20;;;;;;;6.93;4.68;;;;;;;18.50;59.12;99413.78;339103;28;12211;-64
2023/06/17 00:08:32;;;;;;;6.97;4.45;;;;;;;18.50;59.18;99408.53;341091;28;4558;-64
2023/06/17 00:08:44;;;;;;;4.93;3.80;;;;;;;18.47;59.25;99401.69;340211;28;5027;-64
2023/06/17 00:08:57;;;;;;;4.60;3.70;;;;;;;18.46;59.20;99412.31;338282;28;16702;-64
2023/06/17 00:09:09;;;;;;;5.65;4.00;;;;;;;18.44;59.05;99420.31;341484;28;5572;-64
2023/06/17 00:09:21;;;;;;;5.88;4.20;;;;;;;18.46;58.91;99415.78;338876;28;4548;-64
2023/06/17 00:09:33;;;;;;;5.55;4.10;;;;;;;18.47;58.59;99416.63;341538;28;5223;-64
2023/06/17 00:09:45;;;;;;;4.53;3.92;;;;;;;18.45;58.71;99410.63;337929;28;4682;-64
2023/06/17 00:09:57;;;;;;;4.43;3.92;;;;;;;18.45;59.42;99421.16;340653;28;5572;-65
2023/06/17 00:10:10;;;;;;;4.68;3.97;;;;;;;18.43;58.95;99412.50;338060;28;5298;-64
2023/06/17 00:10:22;;;;;;;6.20;3.95;;;;;;;18.42;58.57;99409.06;339367;28;17917;-64
2023/06/17 00:10:34;;;;;;;6.88;4.10;;;;;;;18.42;58.96;99410.84;342445;28;5403;-64
2023/06/17 00:10:46;;;;;;;6.28;4.00;;;;;;;18.40;58.71;99418.00;338162;28;18052;-64
2023/06/17 00:10:58;;;;;;;5.15;3.97;;;;;;;18.41;58.56;99410.00;341501;28;5394;-64
2023/06/17 00:11:10;;;;;;;6.72;4.28;;;;;;;18.43;58.21;99409.88;338535;28;11526;-64
2023/06/17 00:11:22;;;;;;;6.72;4.55;;;;;;;18.43;58.73;99407.25;341252;28;4619;-64
2023/06/17 00:11:34;;;;;;;5.53;4.30;;;;;;;18.41;58.80;99414.41;341030;28;5205;-64
2023/06/17 00:11:47;;;;;;;4.70;4.20;;;;;;;18.42;58.85;99413.47;339755;28;19243;-64
2023/06/17 00:12:02;;;;;;;5.97;4.10;;;;;;;18.41;58.90;99414.41;341233;28;4611;-64
2023/06/17 00:12:14;;;;;;;6.40;3.97;;;;;;;18.39;59.34;99405.78;338553;28;17786;-64
2023/06/17 00:12:31;;;;;;;6.50;4.20;;;;;;;18.39;59.28;99411.91;338573;28;18196;-64
2023/06/17 00:12:44;;;;;;;6.38;4.38;;;;;;;18.32;59.16;99410.63;338895;28;17298;-64
2023/06/17 00:12:58;;;;;;;6.10;4.30;;;;;;;18.29;59.09;99414.31;338524;28;16051;-64
2023/06/17 00:13:10;;;;;;;7.22;4.47;;;;;;;18.31;58.99;99409.81;338805;28;4526;-65
2023/06/17 00:13:22;;;;;;;6.95;4.50;;;;;;;18.32;58.68;99415.91;341004;28;5379;-64
2023/06/17 00:13:34;;;;;;;6.13;4.32;;;;;;;18.31;58.98;99409.81;340553;28;5314;-64
2023/06/17 00:13:46;;;;;;;5.85;4.25;;;;;;;18.30;59.23;99408.09;337564;28;16994;-65
2023/06/17 00:14:00;;;;;;;6.70;4.38;;;;;;;18.30;58.98;99408.09;341457;28;4663;-64
2023/06/17 00:14:12;;;;;;;7.57;4.55;;;;;;;18.32;58.80;99411.47;337230;28;17641;-64
2023/06/17 00:14:25;;;;;;;6.63;4.20;;;;;;;18.34;58.88;99414.84;340843;28;4717;-64
2023/06/17 00:14:37;;;;;;;6.03;3.97;;;;;;;18.34;59.09;99408.75;337070;28;18433;-64
2023/06/17 00:14:50;;;;;;;5.05;4.00;;;;;;;18.33;59.28;99405.28;339764;28;4686;-64
2023/06/17 00:15:05;;;;;;;6.13;4.13;;;;;;;18.32;59.26;99406.22;336753;28;17860;-64
2023/06/17 00:15:17;;;;;;;6.78;4.07;;;;;;;18.30;59.23;99410.72;338166;28;18295;-64
2023/06/17 00:15:32;;;;;;;6.90;4.07;;;;;;;18.29;59.38;99401.16;340369;28;5209;-64
2023/06/17 00:15:56;;;;;;;6.60;4.30;;;;;;;18.31;59.05;99411.56;337011;28;17670;-64
2023/06/17 00:16:09;;;;;;;6.82;4.05;;;;;;;18.33;59.01;99413.16;335594;28;17129;-64
2023/06/17 00:16:21;;;;;;;7.00;4.25;;;;;;;18.34;59.00;99409.56;338642;28;16650;-64
2023/06/17 00:16:36;;;;;;;7.13;4.20;;;;;;;18.34;59.42;99404.31;340798;28;5171;-64
2023/06/17 00:16:49;;;;;;;5.88;4.20;;;;;;;18.36;59.27;99412.94;337352;28;18148;-64
2023/06/17 00:17:01;;;;;;;6.60;4.20;;;;;;;18.38;58.98;99412.00;338206;28;18093;-64
2023/06/17 00:17:14;;;;;;;7.20;4.22;;;;;;;18.39;58.86;99411.03;341181;28;4591;-64
2023/06/17 00:17:26;;;;;;;7.05;4.10;;;;;;;18.39;58.78;99411.91;338696;28;17870;-64
2023/06/17 00:17:44;;;;;;;6.40;4.05;;;;;;;18.36;59.11;99407.69;340943;28;4607;-64
2023/06/17 00:17:58;;;;;;;5.20;3.78;;;;;;;18.38;58.96;99412.00;337384;28;17245;-64
2023/06/17 00:18:10;;;;;;;6.35;4.05;;;;;;;18.37;58.93;99411.13;339767;28;4624;-64
2023/06/17 00:18:26;;;;;;;6.38;4.30;;;;;;;18.38;58.73;99414.63;337219;28;18237;-64
2023/06/17 00:18:39;;;;;;;5.32;4.00;;;;;;;18.37;59.00;99416.41;336842;28;18872;-64
2023/06/17 00:18:51;;;;;;;5.30;3.78;;;;;;;18.36;59.02;99418.19;338010;28;18129;-64
2023/06/17 00:19:04;;;;;;;5.35;3.97;;;;;;;18.36;59.00;99418.19;340710;28;5141;-64
2023/06/17 00:19:20;;;;;;;5.18;4.20;;;;;;;18.36;59.23;99422.63;338293;28;18683;-64
2023/06/17 00:19:36;;;;;;;4.68;4.07;;;;;;;18.37;59.11;99421.66;337773;28;17510;-64
2023/06/17 00:19:48;;;;;;;4.50;3.83;;;;;;;18.38;58.86;99419.91;338149;28;16673;-64
2023/06/17 00:20:07;;;;;;;5.13;4.00;;;;;;;18.38;58.90;99422.53;341101;28;5525;-64
2023/06/17 00:20:20;;;;;;;5.30;4.20;;;;;;;18.38;58.91;99425.16;337590;28;17484;-64
2023/06/17 00:20:36;;;;;;;4.82;3.88;;;;;;;18.38;58.89;99419.91;338682;28;18235;-64
2023/06/17 00:20:52;;;;;;;4.88;3.70;;;;;;;18.38;58.79;99422.53;338764;28;18810;-64
2023/06/17 00:21:04;;;;;;;4.70;3.97;;;;;;;18.31;58.72;99424.72;338450;28;18656;-64
2023/06/17 00:21:16;;;;;;;4.95;4.13;;;;;;;18.30;58.43;99428.31;338852;28;18223;-65
2023/06/17 00:21:28;;;;;;;5.57;4.13;;;;;;;18.31;58.65;99419.47;340790;28;5563;-64
2023/06/17 00:21:40;;;;;;;5.57;4.05;;;;;;;18.29;58.78;99427.47;340301;28;11943;-64
2023/06/17 00:21:52;;;;;;;6.50;4.10;;;;;;;18.29;58.69;99416.97;338768;28;17876;-64
2023/06/17 00:22:05;;;;;;;6.15;4.00;;;;;;;18.32;58.93;99418.53;341486;28;5191;-64
2023/06/17 00:22:18;;;;;;;6.13;3.97;;;;;;;18.30;58.77;99418.63;338934;28;18323;-64
2023/06/17 00:22:34;;;;;;;5.75;3.78;;;;;;;18.30;58.59;99421.25;338765;28;4659;-65
2023/06/17 00:22:46;;;;;;;6.55;4.00;;;;;;;18.27;58.30;99413.59;337558;28;16935;-65
2023/06/17 00:23:03;;;;;;;8.15;4.07;;;;;;;18.09;58.23;99420.06;337399;28;18117;-64
2023/06/17 00:23:15;;;;;;;7.28;4.10;;;;;;;18.03;58.23;99409.97;340162;28;11257;-65
2023/06/17 00:23:27;;;;;;;4.80;3.88;;;;;;;18.07;58.30;99414.06;339584;28;17975;-64
2023/06/17 00:23:39;;;;;;;6.30;4.10;;;;;;;18.04;58.16;99414.28;342382;28;4679;-64
2023/06/17 00:23:52;;;;;;;6.05;4.05;;;;;;;17.99;58.37;99411.13;339155;28;16902;-65
2023/06/17 00:24:04;;;;;;;4.82;3.97;;;;;;;17.98;58.30;99412.09;342526;28;5039;-64
2023/06/17 00:24:16;;;;;;;5.00;3.80;;;;;;;17.95;58.54;99408.72;339724;28;18030;-64
2023/06/17 00:24:28;;;;;;;4.90;3.70;;;;;;;17.96;58.34;99404.28;340849;28;5424;-64
2023/06/17 00:24:40;;;;;;;4.60;3.92;;;;;;;17.95;58.26;99408.72;342447;28;4581;-64
2023/06/17 00:24:52;;;;;;;5.20;4.35;;;;;;;17.98;58.00;99412.09;339256;28;19178;-64
2023/06/17 00:25:05;;;;;;;5.28;4.30;;;;;;;17.98;57.91;99406.81;341415;28;5138;-64
2023/06/17 00:25:18;;;;;;;5.03;4.10;;;;;;;17.98;58.19;99402.41;337926;28;18614;-64
2023/06/17 00:25:30;;;;;;;5.75;4.28;;;;;;;17.98;58.18;99401.56;340927;28;4570;-64
2023/06/17 00:25:42;;;;;;;5.45;4.30;;;;;;;18.00;58.14;99402.31;338417;28;18576;-64
2023/06/17 00:25:54;;;;;;;5.15;4.38;;;;;;;18.00;58.32;99404.94;341342;28;5222;-64
2023/06/17 00:26:06;;;;;;;4.78;4.15;;;;;;;18.01;58.24;99407.47;338483;28;17930;-65
2023/06/17 00:26:18;;;;;;;4.93;4.03;;;;;;;18.00;58.39;99404.94;337664;28;4655;-64
2023/06/17 00:26:30;;;;;;;4.78;3.90;;;;;;;18.02;58.37;99405.66;340456;28;4684;-64
2023/06/17 00:26:42;;;;;;;4.90;3.92;;;;;;;18.01;58.56;99406.59;338500;28;18140;-65
2023/06/17 00:26:54;;;;;;;5.45;4.07;;;;;;;18.01;58.54;99410.09;341099;28;5188;-64
2023/06/17 00:27:06;;;;;;;5.55;4.03;;;;;;;18.01;58.60;99411.84;338353;28;17036;-65
2023/06/17 00:27:18;;;;;;;5.82;4.15;;;;;;;18.01;58.61;99411.84;339883;28;5147;-64
2023/06/17 00:27:30;;;;;;;5.75;4.07;;;;;;;17.98;59.03;99407.66;340094;28;4668;-64
2023/06/17 00:27:42;;;;;;;5.25;4.07;;;;;;;17.98;59.09;99414.72;338162;28;18397;-64
2023/06/17 00:27:54;;;;;;;5.80;4.20;;;;;;;17.98;58.96;99410.28;341134;28;5274;-64
2023/06/17 00:28:06;;;;;;;5.95;3.95;;;;;;;17.94;59.51;99414.06;338142;28;16170;-65
2023/06/17 00:28:18;;;;;;;5.47;3.83;;;;;;;17.94;59.18;99408.81;340743;28;5192;-64
2023/06/17 00:28:30;;;;;;;4.95;3.67;;;;;;;17.93;59.55;99409.78;341392;28;5206;-64
2023/06/17 00:28:42;;;;;;;5.05;3.67;;;;;;;17.93;59.40;99410.59;339126;28;17892;-64
2023/06/17 00:28:54;;;;;;;6.72;3.75;;;;;;;17.89;59.68;99403.88;341560;28;4643;-64
2023/06/17 00:29:06;;;;;;;6.07;3.80;;;;;;;17.92;59.75;99408.91;338186;28;12057;-65
2023/06/17 00:29:18;;;;;;;4.38;3.85;;;;;;;17.90;59.56;99415.22;341297;28;4641;-64
2023/06/17 00:29:30;;;;;;;5.20;4.15;;;;;;;17.91;59.44;99407.22;341308;28;5228;-63
2023/06/17 00:29:45;;;;;;;5.95;4.30;;;;;;;17.93;59.40;99410.59;337641;28;17915;-64
2023/06/17 00:30:00;;;;;;;5.30;3.92;;;;;;;17.94;58.93;99407.00;337703;28;18151;-64
2023/06/17 00:30:12;;;;;;;4.95;3.90;;;;;;;17.95;58.90;99406.09;338981;28;18100;-64
2023/06/17 00:30:24;;;;;;;4.60;3.90;;;;;;;17.89;58.90;99409.13;340488;28;4557;-64
2023/06/17 00:30:36;;;;;;;4.20;3.80;;;;;;;17.86;58.90;99408.47;338750;28;18154;-65
2023/06/17 00:30:48;;;;;;;4.63;3.78;;;;;;;17.86;58.94;99404.06;339357;28;5279;-64
2023/06/17 00:31:01;;;;;;;5.35;3.88;;;;;;;17.89;58.80;99403.03;338409;28;5062;-64
2023/06/17 00:31:12;;;;;;;5.40;3.90;;;;;;;17.92;58.73;99405.44;341215;28;4624;-64
2023/06/17 00:31:24;;;;;;;5.97;3.72;;;;;;;17.93;58.78;99405.34;340851;28;4762;-64
2023/06/17 00:31:36;;;;;;;5.78;3.80;;;;;;;17.93;58.52;99400.09;337533;28;19522;-64
2023/06/17 00:31:48;;;;;;;5.68;4.07;;;;;;;17.94;58.63;99401.75;341345;28;5521;-64
2023/06/17 00:32:01;;;;;;;4.90;4.15;;;;;;;17.91;58.95;99412.50;340449;28;5739;-64
2023/06/17 00:32:14;;;;;;;5.18;4.15;;;;;;;17.91;58.87;99401.97;341359;28;18402;-64
2023/06/17 00:32:27;;;;;;;5.30;3.92;;;;;;;17.93;58.58;99404.50;338533;28;16316;-64
2023/06/17 00:32:40;;;;;;;5.05;3.97;;;;;;;17.91;59.16;99401.97;341606;28;4533;-64
2023/06/17 00:32:53;;;;;;;5.85;4.10;;;;;;;17.88;58.76;99410.06;337792;28;18050;-64
2023/06/17 00:33:07;;;;;;;5.70;4.10;;;;;;;17.87;58.70;99400.50;340185;28;5417;-64
2023/06/17 00:33:19;;;;;;;5.80;4.30;;;;;;;17.86;58.85;99404.06;337462;28;17760;-64
2023/06/17 00:33:31;;;;;;;5.65;4.20;;;;;;;17.86;58.75;99404.06;337378;28;18124;-64
2023/06/17 00:33:43;;;;;;;5.47;4.28;;;;;;;17.77;58.91;99399.41;340066;28;4638;-64
2023/06/17 00:33:56;;;;;;;5.15;4.20;;;;;;;17.78;59.02;99401.06;338271;28;5613;-64
2023/06/17 00:34:08;;;;;;;5.38;4.13;;;;;;;17.78;59.03;99403.69;341104;28;4528;-64
2023/06/17 00:34:20;;;;;;;5.10;4.03;;;;;;;17.77;58.97;99405.50;341210;28;5047;-64
2023/06/17 00:34:31;;;;;;;5.38;4.15;;;;;;;17.75;58.91;99396.88;338320;28;18195;-64
2023/06/17 00:34:43;;;;;;;5.20;4.10;;;;;;;17.76;58.95;99405.59;340160;28;5364;-64
2023/06/17 00:34:56;;;;;;;5.50;4.15;;;;;;;17.74;59.62;99399.59;338746;28;11568;-64
2023/06/17 00:35:08;;;;;;;5.45;4.13;;;;;;;17.72;59.68;99398.84;337405;28;18217;-64
2023/06/17 00:35:21;;;;;;;5.55;4.25;;;;;;;17.74;59.13;99399.59;339041;28;12427;-64
2023/06/17 00:35:34;;;;;;;5.60;4.30;;;;;;;17.75;59.01;99401.28;338416;28;18521;-64
2023/06/17 00:35:46;;;;;;;5.55;4.20;;;;;;;17.73;58.65;99401.38;338345;28;5482;-65
2023/06/17 00:35:58;;;;;;;5.00;3.80;;;;;;;17.71;58.92;99402.44;339837;28;4808;-64
2023/06/17 00:36:09;;;;;;;4.87;4.00;;;;;;;17.71;58.92;99399.81;340602;28;5433;-64
2023/06/17 00:36:21;;;;;;;4.72;4.00;;;;;;;17.68;58.85;99400.00;338828;28;18088;-64
2023/06/17 00:36:36;;;;;;;5.13;4.03;;;;;;;17.62;59.18;99395.97;337975;28;11293;-65
2023/06/17 00:36:48;;;;;;;5.55;4.00;;;;;;;17.64;59.13;99398.50;340294;28;4600;-64
2023/06/17 00:37:00;;;;;;;5.35;3.95;;;;;;;17.62;59.33;99403.03;341309;28;5378;-64
2023/06/17 00:37:12;;;;;;;5.10;4.03;;;;;;;17.63;59.37;99397.69;338333;28;17946;-64
2023/06/17 00:37:24;;;;;;;5.70;4.35;;;;;;;17.63;59.33;99396.84;341240;28;4637;-64
2023/06/17 00:37:36;;;;;;;5.53;4.43;;;;;;;17.62;59.52;99401.22;337859;28;14909;-65
2023/06/17 00:37:48;;;;;;;5.60;4.45;;;;;;;17.60;59.91;99391.78;340428;28;4811;-64
2023/06/17 00:38:01;;;;;;;5.30;4.20;;;;;;;17.62;59.88;99395.97;339591;28;5044;-64
2023/06/17 00:38:13;;;;;;;5.35;4.00;;;;;;;17.62;59.79;99403.03;337378;28;18056;-64
2023/06/17 00:38:25;;;;;;;4.57;4.00;;;;;;;17.60;60.08;99397.03;339303;28;5298;-64
2023/06/17 00:38:36;;;;;;;5.35;4.10;;;;;;;17.62;59.45;99390.72;336980;28;18265;-65
2023/06/17 00:38:48;;;;;;;6.72;4.35;;;;;;;17.61;59.49;99396.09;338708;28;4880;-64
2023/06/17 00:39:00;;;;;;;8.25;4.60;;;;;;;17.61;59.50;99396.09;338758;28;5589;-64
2023/06/17 00:39:15;;;;;;;9.38;4.50;;;;;;;17.61;59.49;99388.22;336437;28;18036;-64
2023/06/17 00:39:27;;;;;;;7.40;4.38;;;;;;;17.61;59.26;99396.94;337692;28;17996;-64
2023/06/17 00:39:39;;;;;;;6.03;4.40;;;;;;;17.61;59.14;99399.56;340813;28;5365;-64
2023/06/17 00:39:51;;;;;;;5.60;4.40;;;;;;;17.64;58.99;99395.88;337124;28;11796;-65
2023/06/17 00:40:07;;;;;;;5.15;4.20;;;;;;;17.65;59.02;99397.59;340129;28;5541;-64
2023/06/17 00:40:20;;;;;;;5.10;4.20;;;;;;;17.65;59.07;99393.16;339237;28;17937;-64
2023/06/17 00:40:32;;;;;;;5.60;4.28;;;;;;;17.65;59.10;99390.53;338751;28;17840;-64
2023/06/17 00:40:44;;;;;;;7.60;4.20;;;;;;;17.64;59.20;99393.25;341574;28;5420;-64
2023/06/17 00:40:56;;;;;;;8.47;4.10;;;;;;;17.67;58.84;99398.31;339028;28;12281;-64
2023/06/17 00:41:08;;;;;;;8.38;4.30;;;;;;;17.65;58.97;99397.59;340274;28;4719;-64
2023/06/17 00:41:20;;;;;;;7.32;4.45;;;;;;;17.66;59.16;99396.63;340356;28;4526;-64
2023/06/17 00:41:32;;;;;;;6.72;4.28;;;;;;;17.68;59.09;99398.19;337363;28;19259;-64
2023/06/17 00:41:44;;;;;;;5.97;4.18;;;;;;;17.68;59.92;99397.38;341204;28;4652;-64
2023/06/17 00:42:00;;;;;;;6.00;4.32;;;;;;;17.67;59.28;99395.69;339212;28;16607;-64
2023/06/17 00:42:12;;;;;;;6.30;4.45;;;;;;;17.68;59.15;99389.47;338496;28;17296;-64
2023/06/17 00:42:24;;;;;;;6.00;4.45;;;;;;;17.64;59.36;99394.09;341960;28;4761;-64
2023/06/17 00:42:36;;;;;;;5.65;4.38;;;;;;;17.62;59.29;99395.13;338664;28;15984;-64
2023/06/17 00:42:48;;;;;;;6.15;4.05;;;;;;;17.57;59.43;99393.66;340459;28;4881;-64
2023/06/17 00:43:00;;;;;;;8.43;4.30;;;;;;;17.55;59.78;99390.28;340460;28;4827;-64
2023/06/17 00:43:12;;;;;;;7.72;4.38;;;;;;;17.56;59.60;99397.22;337668;28;18270;-64
2023/06/17 00:43:24;;;;;;;6.68;4.13;;;;;;;17.56;59.42;99401.63;340457;28;4673;-64
2023/06/17 00:43:36;;;;;;;6.25;4.20;;;;;;;17.57;59.53;99391.03;337790;28;18349;-64
2023/06/17 00:43:48;;;;;;;6.35;4.20;;;;;;;17.61;59.46;99399.56;341480;28;4551;-64
2023/06/17 00:44:01;;;;;;;5.47;4.00;;;;;;;17.63;59.40;99396.84;341179;28;4511;-64
2023/06/17 00:44:13;;;;;;;5.60;4.00;;;;;;;17.63;59.11;99395.03;338880;28;18060;-64
2023/06/17 00:44:25;;;;;;;5.35;4.15;;;;;;;17.64;59.34;99393.25;341492;28;4806;-64
2023/06/17 00:44:39;;;;;;;5.63;4.15;;;;;;;17.54;59.24;99393.84;338988;28;18038;-64
2023/06/17 00:44:52;;;;;;;5.43;4.25;;;;;;;17.49;59.52;99393.31;337808;28;17672;-64
2023/06/17 00:45:04;;;;;;;4.88;4.15;;;;;;;17.46;59.47;99396.13;340498;28;4549;-64
2023/06/17 00:45:16;;;;;;;5.15;4.03;;;;;;;17.45;59.79;99394.47;337578;28;17975;-64
2023/06/17 00:45:29;;;;;;;5.43;4.00;;;;;;;17.45;59.58;99394.47;340484;28;4661;-64
2023/06/17 00:45:41;;;;;;;5.85;4.22;;;;;;;17.45;59.70;99389.22;338488;28;5220;-64
2023/06/17 00:45:55;;;;;;;6.70;4.35;;;;;;;17.47;59.61;99387.31;340297;28;18188;-64
2023/06/17 00:46:08;;;;;;;7.60;4.38;;;;;;;17.47;59.44;99395.22;338969;28;16538;-64
2023/06/17 00:46:40;;;;;;;7.05;4.50;;;;;;;17.44;59.78;99390.13;341671;28;5465;-64
2023/06/17 00:46:54;;;;;;;5.65;4.60;;;;;;;17.35;60.23;99393.38;344942;23;18262;-76
2023/06/17 00:47:11;;;;;;;5.32;4.32;;;;;;;17.35;60.23;99388.13;336592;28;18346;-78
2023/06/17 00:47:23;;;;;;;7.07;4.43;;;;;;;17.38;60.25;99395.78;337682;28;18272;-78
2023/06/17 00:47:36;;;;;;;8.13;4.68;;;;;;;17.36;60.44;99389.78;340031;28;4481;-78
2023/06/17 00:47:48;;;;;;;7.75;4.63;;;;;;;17.40;60.35;99400.94;335775;28;18878;-78
2023/06/17 00:48:00;;;;;;;6.65;4.50;;;;;;;17.43;60.23;99396.34;337604;28;5438;-78
2023/06/17 00:48:13;;;;;;;7.10;4.25;;;;;;;17.45;59.97;99394.47;334502;28;18460;-78
2023/06/17 00:48:26;;;;;;;6.65;4.05;;;;;;;17.47;59.78;99394.38;337072;28;4725;-77
2023/06/17 00:48:38;;;;;;;6.80;4.20;;;;;;;17.48;59.32;99389.00;333741;29;19006;-77
2023/06/17 00:49:05;;;;;;;7.82;4.40;;;;;;;17.51;59.13;99399.31;335444;29;4479;-77
2023/06/17 00:49:17;;;;;;;5.90;4.13;;;;;;;17.53;59.38;99397.44;331309;29;17487;-78
2023/06/17 00:49:35;;;;;;;5.45;4.10;;;;;;;17.53;59.08;99392.19;333803;29;5952;-78
2023/06/17 00:49:47;;;;;;;5.72;4.65;;;;;;;17.54;59.20;99393.84;332676;29;17794;-77
2023/06/17 00:50:02;;;;;;;5.72;4.55;;;;;;;17.54;59.98;99399.09;335465;29;4610;-78
2023/06/17 00:50:15;;;;;;;6.15;4.30;;;;;;;17.53;59.79;99397.44;333981;28;17783;-78
2023/06/17 00:50:28;;;;;;;6.47;4.50;;;;;;;17.55;59.80;99394.72;334751;28;18218;-78
2023/06/17 00:50:44;;;;;;;8.90;4.47;;;;;;;17.57;59.70;99393.66;338240;28;4657;-78
2023/06/17 00:51:01;;;;;;;8.88;4.20;;;;;;;17.60;59.32;99397.03;338504;28;18077;-77
2023/06/17 00:51:15;;;;;;;6.18;4.28;;;;;;;17.62;59.32;99395.13;335622;28;17852;-78
2023/06/17 00:51:28;;;;;;;6.03;4.30;;;;;;;17.63;59.42;99391.59;337297;28;17791;-78
2023/06/17 00:51:41;;;;;;;5.88;4.18;;;;;;;17.64;59.44;99393.25;340084;28;5387;-78
2023/06/17 00:51:53;;;;;;;5.32;4.10;;;;;;;17.66;59.37;99396.63;335135;28;18491;-77
2023/06/17 00:52:26;;;;;;;5.85;4.13;;;;;;;17.69;59.15;99394.63;334781;28;18467;-78
2023/06/17 00:52:53;;;;;;;4.90;3.97;;;;;;;17.70;58.98;99392.84;334944;28;17849;-78
2023/06/17 00:53:06;;;;;;;6.57;4.18;;;;;;;17.69;59.02;99396.44;337886;28;4799;-78
2023/06/17 00:53:18;;;;;;;6.70;4.38;;;;;;;17.68;59.01;99394.72;336012;28;18304;-77
2023/06/17 00:53:31;;;;;;;5.35;4.18;;;;;;;17.65;58.95;99394.94;339195;28;4662;-76
2023/06/17 00:53:43;;;;;;;4.82;4.25;;;;;;;17.65;58.80;99394.94;334560;28;20275;-78
2023/06/17 00:53:56;;;;;;;5.22;4.45;;;;;;;17.65;58.75;99394.94;337314;28;4541;-78
2023/06/17 00:54:08;;;;;;;6.13;4.55;;;;;;;17.64;59.24;99398.50;335225;28;19955;-78
2023/06/17 00:54:20;;;;;;;5.50;4.20;;;;;;;17.61;59.28;99394.31;338506;28;5076;-78
2023/06/17 00:54:36;;;;;;;5.40;4.20;;;;;;;17.61;59.33;99394.31;336133;28;18289;-78
2023/06/17 00:54:48;;;;;;;5.50;4.40;;;;;;;17.64;59.30;99398.50;336027;28;18602;-78
2023/06/17 00:55:00;;;;;;;6.32;4.30;;;;;;;17.64;59.00;99395.88;338618;28;5315;-76
2023/06/17 00:55:13;;;;;;;6.25;4.30;;;;;;;17.64;58.90;99396.72;335735;28;18425;-79
2023/06/17 00:55:26;;;;;;;7.82;4.35;;;;;;;17.67;59.09;99403.59;337370;28;5254;-78
2023/06/17 00:55:39;;;;;;;6.70;4.05;;;;;;;17.66;58.78;99397.47;334956;28;18279;-78
2023/06/17 00:55:51;;;;;;;4.90;4.22;;;;;;;17.68;58.90;99400.81;337198;28;12248;-78
2023/06/17 00:56:04;;;;;;;4.70;4.20;;;;;;;17.70;59.08;99404.19;340144;28;4921;-77
2023/06/17 00:56:17;;;;;;;4.53;3.95;;;;;;;17.70;58.98;99392.84;337284;28;5154;-78
2023/06/17 00:56:31;;;;;;;4.60;3.95;;;;;;;17.69;59.41;99396.44;337400;28;16661;-78
2023/06/17 00:56:43;;;;;;;4.97;4.20;;;;;;;17.69;59.24;99396.44;335841;28;18540;-78
2023/06/17 00:56:57;;;;;;;5.15;4.15;;;;;;;17.66;59.47;99394.00;338383;28;4567;-78
2023/06/17 00:57:13;;;;;;;6.28;4.15;;;;;;;17.66;60.25;99394.00;336234;28;18250;-78
2023/06/17 00:57:25;;;;;;;6.60;4.30;;;;;;;17.64;60.02;99403.78;336385;28;18002;-78
2023/06/17 00:57:38;;;;;;;6.55;4.43;;;;;;;17.63;60.03;99399.47;336030;28;18817;-77
2023/06/17 00:57:50;;;;;;;6.32;4.47;;;;;;;17.64;59.76;99393.25;337543;28;4567;-77
2023/06/17 00:58:03;;;;;;;7.03;4.43;;;;;;;17.68;59.61;99402.63;335017;28;18122;-78
2023/06/17 00:58:16;;;;;;;6.60;4.40;;;;;;;17.68;59.39;99397.38;337944;28;4499;-78
2023/06/17 00:58:27;;;;;;;5.30;4.30;;;;;;;17.69;59.21;99401.69;336505;28;18325;-78
2023/06/17 00:58:41;;;;;;;6.00;4.28;;;;;;;17.71;58.97;99399.81;340404;28;4463;-78
2023/06/17 00:58:54;;;;;;;6.03;4.22;;;;;;;17.69;58.94;99396.44;337576;28;18433;-78
2023/06/17 00:59:06;;;;;;;6.03;4.10;;;;;;;17.70;58.99;99392.84;339803;28;4541;-78
2023/06/17 00:59:18;;;;;;;6.53;4.20;;;;;;;17.67;59.16;99399.16;338067;28;17292;-78
2023/06/17 00:59:32;;;;;;;5.88;4.18;;;;;;;17.68;59.28;99400.00;340429;28;4577;-78
2023/06/17 00:59:45;;;;;;;4.97;4.38;;;;;;;17.69;59.26;99396.44;337429;28;17807;-78
2023/06/17 00:59:57;;;;;;;5.55;4.40;;;;;;;17.67;59.70;99399.16;337359;28;17030;-78
2023/06/17 01:00:10;;;;;;;6.80;4.40;;;;;;;17.69;59.26;99393.81;339760;28;5873;-78
2023/06/17 01:00:23;;;;;;;6.97;4.25;;;;;;;17.71;59.21;99399.81;336934;28;17919;-77
2023/06/17 01:00:35;;;;;;;5.65;4.28;;;;;;;17.71;59.44;99389.28;339011;28;4675;-77
2023/06/17 01:00:47;;;;;;;4.85;4.20;;;;;;;17.73;59.61;99400.53;336391;28;18262;-78
2023/06/17 01:00:59;;;;;;;5.50;4.07;;;;;;;17.73;59.55;99395.28;340408;28;4599;-78
2023/06/17 01:01:12;;;;;;;7.00;4.28;;;;;;;17.71;59.30;99397.19;337764;28;10131;-78
2023/06/17 01:01:24;;;;;;;7.75;4.40;;;;;;;17.73;58.95;99392.66;339974;28;4550;-78
2023/06/17 01:01:36;;;;;;;7.07;4.18;;;;;;;17.75;58.69;99396.03;337431;28;11069;-78
2023/06/17 01:01:48;;;;;;;5.85;4.05;;;;;;;17.75;58.47;99390.78;338907;28;4529;-77
2023/06/17 01:02:00;;;;;;;6.43;4.72;;;;;;;17.76;58.43;99397.69;340352;28;5530;-77
2023/06/17 01:02:13;;;;;;;6.13;4.90;;;;;;;17.78;58.24;99401.06;337778;28;18512;-76